sensor_id;sensor_type;location;lat;lon;timestamp;temperature;humidity
22925;DHT22;11628;51.072;3.712;2023-02-28T00:01:13;5.20;94.10
22925;DHT22;11628;51.072;3.712;2023-02-28T00:03:40;5.30;94.00
22925;DHT22;11628;51.072;3.712;2023-02-28T00:06:09;5.20;94.20
22925;DHT22;11628;51.072;3.712;2023-02-28T00:08:36;5.20;94.30
22925;DHT22;11628;51.072;3.712;2023-02-28T00:11:07;5.20;94.40
22925;DHT22;11628;51.072;3.712;2023-02-28T00:13:35;5.30;94.60
22925;DHT22;11628;51.072;3.712;2023-02-28T00:16:05;5.10;94.80
22925;DHT22;11628;51.072;3.712;2023-02-28T00:18:32;5.10;94.90
22925;DHT22;11628;51.072;3.712;2023-02-28T00:20:59;5.00;95.50
22925;DHT22;11628;51.072;3.712;2023-02-28T00:23:25;5.00;95.40
22925;DHT22;11628;51.072;3.712;2023-02-28T00:25:52;5.00;95.60
22925;DHT22;11628;51.072;3.712;2023-02-28T00:28:19;4.90;95.80
22925;DHT22;11628;51.072;3.712;2023-02-28T00:30:44;5.00;95.90
22925;DHT22;11628;51.072;3.712;2023-02-28T00:33:11;5.00;95.90
22925;DHT22;11628;51.072;3.712;2023-02-28T00:35:38;5.00;96.10
22925;DHT22;11628;51.072;3.712;2023-02-28T00:38:04;5.00;96.00
22925;DHT22;11628;51.072;3.712;2023-02-28T00:40:30;5.00;96.10
22925;DHT22;11628;51.072;3.712;2023-02-28T00:42:56;5.00;96.30
22925;DHT22;11628;51.072;3.712;2023-02-28T00:45:22;4.90;96.40
22925;DHT22;11628;51.072;3.712;2023-02-28T00:47:49;4.90;97.00
22925;DHT22;11628;51.072;3.712;2023-02-28T00:50:19;4.90;97.30
22925;DHT22;11628;51.072;3.712;2023-02-28T00:52:48;4.90;97.10
22925;DHT22;11628;51.072;3.712;2023-02-28T00:55:15;4.90;97.70
22925;DHT22;11628;51.072;3.712;2023-02-28T00:57:41;4.90;97.60
22925;DHT22;11628;51.072;3.712;2023-02-28T01:00:08;4.90;97.50
22925;DHT22;11628;51.072;3.712;2023-02-28T01:02:34;4.90;97.50
22925;DHT22;11628;51.072;3.712;2023-02-28T01:05:00;5.00;97.50
22925;DHT22;11628;51.072;3.712;2023-02-28T01:07:26;4.90;97.70
22925;DHT22;11628;51.072;3.712;2023-02-28T01:09:52;4.90;97.90
22925;DHT22;11628;51.072;3.712;2023-02-28T01:12:18;4.90;98.10
22925;DHT22;11628;51.072;3.712;2023-02-28T01:14:44;4.80;98.50
22925;DHT22;11628;51.072;3.712;2023-02-28T01:17:10;4.80;98.70
22925;DHT22;11628;51.072;3.712;2023-02-28T01:19:36;4.90;99.30
22925;DHT22;11628;51.072;3.712;2023-02-28T01:22:06;4.90;99.10
22925;DHT22;11628;51.072;3.712;2023-02-28T01:24:32;4.80;99.20
22925;DHT22;11628;51.072;3.712;2023-02-28T01:26:58;4.90;99.70
22925;DHT22;11628;51.072;3.712;2023-02-28T01:29:25;4.80;99.90
22925;DHT22;11628;51.072;3.712;2023-02-28T01:31:51;4.70;99.90
22925;DHT22;11628;51.072;3.712;2023-02-28T01:34:17;4.70;99.90
22925;DHT22;11628;51.072;3.712;2023-02-28T01:36:44;4.70;99.90
22925;DHT22;11628;51.072;3.712;2023-02-28T01:39:11;4.70;99.90
22925;DHT22;11628;51.072;3.712;2023-02-28T01:41:38;4.60;99.90
22925;DHT22;11628;51.072;3.712;2023-02-28T01:47:13;4.60;99.90
22925;DHT22;11628;51.072;3.712;2023-02-28T01:49:39;4.60;99.90
22925;DHT22;11628;51.072;3.712;2023-02-28T01:52:06;4.60;99.90
22925;DHT22;11628;51.072;3.712;2023-02-28T01:54:34;4.50;99.90
22925;DHT22;11628;51.072;3.712;2023-02-28T01:57:10;4.60;99.90
22925;DHT22;11628;51.072;3.712;2023-02-28T01:59:51;4.60;99.90
22925;DHT22;11628;51.072;3.712;2023-02-28T02:02:20;4.60;99.90
22925;DHT22;11628;51.072;3.712;2023-02-28T02:04:55;4.60;99.90
22925;DHT22;11628;51.072;3.712;2023-02-28T02:07:21;4.50;99.90
22925;DHT22;11628;51.072;3.712;2023-02-28T02:09:48;4.40;99.90
22925;DHT22;11628;51.072;3.712;2023-02-28T02:17:54;4.40;99.90
22925;DHT22;11628;51.072;3.712;2023-02-28T02:20:46;4.50;99.90
22925;DHT22;11628;51.072;3.712;2023-02-28T02:35:10;4.40;99.90
22925;DHT22;11628;51.072;3.712;2023-02-28T02:38:02;4.40;99.90
22925;DHT22;11628;51.072;3.712;2023-02-28T02:40:44;4.40;99.90
22925;DHT22;11628;51.072;3.712;2023-02-28T02:48:16;4.30;99.90
22925;DHT22;11628;51.072;3.712;2023-02-28T02:50:51;4.20;99.90
22925;DHT22;11628;51.072;3.712;2023-02-28T02:53:24;4.20;99.90
22925;DHT22;11628;51.072;3.712;2023-02-28T02:55:53;4.20;99.90
22925;DHT22;11628;51.072;3.712;2023-02-28T02:58:25;4.20;99.90
22925;DHT22;11628;51.072;3.712;2023-02-28T03:00:57;4.10;99.90
22925;DHT22;11628;51.072;3.712;2023-02-28T03:03:24;4.20;99.90
22925;DHT22;11628;51.072;3.712;2023-02-28T03:06:10;4.20;99.90
22925;DHT22;11628;51.072;3.712;2023-02-28T03:08:37;4.20;99.90
22925;DHT22;11628;51.072;3.712;2023-02-28T03:11:06;4.20;99.90
22925;DHT22;11628;51.072;3.712;2023-02-28T03:23:03;4.00;99.90
22925;DHT22;11628;51.072;3.712;2023-02-28T03:25:56;4.10;99.90
22925;DHT22;11628;51.072;3.712;2023-02-28T03:28:31;4.00;99.90
22925;DHT22;11628;51.072;3.712;2023-02-28T03:36:29;3.90;99.90
22925;DHT22;11628;51.072;3.712;2023-02-28T03:39:00;3.90;99.90
22925;DHT22;11628;51.072;3.712;2023-02-28T03:41:51;3.90;99.90
22925;DHT22;11628;51.072;3.712;2023-02-28T03:44:25;4.00;99.90
22925;DHT22;11628;51.072;3.712;2023-02-28T03:47:00;4.10;99.90
22925;DHT22;11628;51.072;3.712;2023-02-28T03:49:28;4.10;99.90
22925;DHT22;11628;51.072;3.712;2023-02-28T03:51:58;4.20;99.90
22925;DHT22;11628;51.072;3.712;2023-02-28T03:54:30;4.30;99.90
22925;DHT22;11628;51.072;3.712;2023-02-28T04:00:20;4.40;99.90
22925;DHT22;11628;51.072;3.712;2023-02-28T04:02:47;4.50;99.90
22925;DHT22;11628;51.072;3.712;2023-02-28T04:05:19;4.50;99.90
22925;DHT22;11628;51.072;3.712;2023-02-28T04:07:44;4.40;99.90
22925;DHT22;11628;51.072;3.712;2023-02-28T04:10:11;4.50;99.90
22925;DHT22;11628;51.072;3.712;2023-02-28T04:12:38;4.60;99.90
22925;DHT22;11628;51.072;3.712;2023-02-28T04:15:05;4.60;99.90
22925;DHT22;11628;51.072;3.712;2023-02-28T04:17:31;4.70;99.90
22925;DHT22;11628;51.072;3.712;2023-02-28T04:19:57;4.70;99.90
22925;DHT22;11628;51.072;3.712;2023-02-28T04:22:24;4.70;99.90
22925;DHT22;11628;51.072;3.712;2023-02-28T04:25:09;4.80;99.90
22925;DHT22;11628;51.072;3.712;2023-02-28T04:27:36;4.80;99.90
22925;DHT22;11628;51.072;3.712;2023-02-28T04:30:02;4.90;99.90
22925;DHT22;11628;51.072;3.712;2023-02-28T04:32:28;4.90;99.90
22925;DHT22;11628;51.072;3.712;2023-02-28T04:34:54;5.00;99.90
22925;DHT22;11628;51.072;3.712;2023-02-28T04:37:20;5.10;99.90
22925;DHT22;11628;51.072;3.712;2023-02-28T04:39:45;5.10;99.90
22925;DHT22;11628;51.072;3.712;2023-02-28T04:42:12;5.20;99.90
22925;DHT22;11628;51.072;3.712;2023-02-28T04:44:38;5.30;99.90
22925;DHT22;11628;51.072;3.712;2023-02-28T04:47:04;5.40;99.90
22925;DHT22;11628;51.072;3.712;2023-02-28T04:49:31;5.40;99.90
22925;DHT22;11628;51.072;3.712;2023-02-28T04:51:57;5.30;99.90
22925;DHT22;11628;51.072;3.712;2023-02-28T04:54:23;5.30;99.90
22925;DHT22;11628;51.072;3.712;2023-02-28T04:56:48;5.30;99.90
22925;DHT22;11628;51.072;3.712;2023-02-28T04:59:15;5.30;99.90
22925;DHT22;11628;51.072;3.712;2023-02-28T05:01:46;5.30;99.90
22925;DHT22;11628;51.072;3.712;2023-02-28T05:04:12;5.20;99.90
22925;DHT22;11628;51.072;3.712;2023-02-28T05:06:37;5.30;99.90
22925;DHT22;11628;51.072;3.712;2023-02-28T05:09:03;5.30;99.90
22925;DHT22;11628;51.072;3.712;2023-02-28T05:11:31;5.30;99.90
22925;DHT22;11628;51.072;3.712;2023-02-28T05:14:04;5.30;99.90
22925;DHT22;11628;51.072;3.712;2023-02-28T05:16:31;5.30;99.90
22925;DHT22;11628;51.072;3.712;2023-02-28T05:18:57;5.30;99.90
22925;DHT22;11628;51.072;3.712;2023-02-28T05:21:30;5.30;99.90
22925;DHT22;11628;51.072;3.712;2023-02-28T05:24:00;5.40;99.90
22925;DHT22;11628;51.072;3.712;2023-02-28T05:26:27;5.40;99.90
22925;DHT22;11628;51.072;3.712;2023-02-28T05:28:53;5.60;99.90
22925;DHT22;11628;51.072;3.712;2023-02-28T05:31:20;5.60;99.90
22925;DHT22;11628;51.072;3.712;2023-02-28T05:33:46;5.60;99.90
22925;DHT22;11628;51.072;3.712;2023-02-28T05:36:13;5.60;99.90
22925;DHT22;11628;51.072;3.712;2023-02-28T05:38:39;5.70;99.90
22925;DHT22;11628;51.072;3.712;2023-02-28T05:41:09;5.70;99.90
22925;DHT22;11628;51.072;3.712;2023-02-28T05:43:36;5.90;99.90
22925;DHT22;11628;51.072;3.712;2023-02-28T05:46:07;5.90;99.90
22925;DHT22;11628;51.072;3.712;2023-02-28T05:48:35;5.70;99.90
22925;DHT22;11628;51.072;3.712;2023-02-28T05:51:02;5.70;99.90
22925;DHT22;11628;51.072;3.712;2023-02-28T05:53:29;5.80;99.90
22925;DHT22;11628;51.072;3.712;2023-02-28T05:55:55;5.90;99.90
22925;DHT22;11628;51.072;3.712;2023-02-28T05:58:21;5.80;99.90
22925;DHT22;11628;51.072;3.712;2023-02-28T06:00:47;5.90;99.90
22925;DHT22;11628;51.072;3.712;2023-02-28T06:03:14;5.80;99.90
22925;DHT22;11628;51.072;3.712;2023-02-28T06:05:39;5.80;99.90
22925;DHT22;11628;51.072;3.712;2023-02-28T06:08:06;5.70;99.90
22925;DHT22;11628;51.072;3.712;2023-02-28T06:10:33;5.70;99.90
22925;DHT22;11628;51.072;3.712;2023-02-28T06:13:03;5.70;99.90
22925;DHT22;11628;51.072;3.712;2023-02-28T06:15:30;5.60;99.90
22925;DHT22;11628;51.072;3.712;2023-02-28T06:17:56;5.70;99.90
22925;DHT22;11628;51.072;3.712;2023-02-28T06:20:24;5.80;99.90
22925;DHT22;11628;51.072;3.712;2023-02-28T06:22:49;5.90;99.90
22925;DHT22;11628;51.072;3.712;2023-02-28T06:25:20;5.80;99.90
22925;DHT22;11628;51.072;3.712;2023-02-28T06:27:46;5.80;99.90
22925;DHT22;11628;51.072;3.712;2023-02-28T06:30:15;5.80;99.90
22925;DHT22;11628;51.072;3.712;2023-02-28T06:32:41;5.80;99.90
22925;DHT22;11628;51.072;3.712;2023-02-28T06:35:07;5.90;99.90
22925;DHT22;11628;51.072;3.712;2023-02-28T06:37:34;5.90;99.90
22925;DHT22;11628;51.072;3.712;2023-02-28T06:40:00;5.80;99.90
22925;DHT22;11628;51.072;3.712;2023-02-28T06:42:26;5.80;99.90
22925;DHT22;11628;51.072;3.712;2023-02-28T06:44:54;5.80;99.90
22925;DHT22;11628;51.072;3.712;2023-02-28T06:47:21;5.80;99.90
22925;DHT22;11628;51.072;3.712;2023-02-28T06:49:47;5.70;99.90
22925;DHT22;11628;51.072;3.712;2023-02-28T06:52:13;5.70;99.90
22925;DHT22;11628;51.072;3.712;2023-02-28T06:54:39;5.60;99.90
22925;DHT22;11628;51.072;3.712;2023-02-28T06:57:05;5.60;99.90
22925;DHT22;11628;51.072;3.712;2023-02-28T06:59:31;5.60;99.90
22925;DHT22;11628;51.072;3.712;2023-02-28T07:01:57;5.70;99.90
22925;DHT22;11628;51.072;3.712;2023-02-28T07:04:23;5.80;99.90
22925;DHT22;11628;51.072;3.712;2023-02-28T07:06:49;5.90;99.90
22925;DHT22;11628;51.072;3.712;2023-02-28T07:09:15;6.00;99.90
22925;DHT22;11628;51.072;3.712;2023-02-28T07:11:42;6.00;99.90
22925;DHT22;11628;51.072;3.712;2023-02-28T07:14:08;6.00;99.90
22925;DHT22;11628;51.072;3.712;2023-02-28T07:16:35;6.00;99.90
22925;DHT22;11628;51.072;3.712;2023-02-28T07:19:01;6.10;99.90
22925;DHT22;11628;51.072;3.712;2023-02-28T07:21:27;6.10;99.90
22925;DHT22;11628;51.072;3.712;2023-02-28T07:23:53;6.20;99.90
22925;DHT22;11628;51.072;3.712;2023-02-28T07:26:20;6.20;99.90
22925;DHT22;11628;51.072;3.712;2023-02-28T07:28:47;6.00;99.90
22925;DHT22;11628;51.072;3.712;2023-02-28T07:31:14;6.00;99.90
22925;DHT22;11628;51.072;3.712;2023-02-28T07:33:42;6.00;99.90
22925;DHT22;11628;51.072;3.712;2023-02-28T07:36:10;6.10;99.90
22925;DHT22;11628;51.072;3.712;2023-02-28T07:38:41;6.10;99.90
22925;DHT22;11628;51.072;3.712;2023-02-28T07:41:08;6.00;99.90
22925;DHT22;11628;51.072;3.712;2023-02-28T07:43:34;6.20;99.90
22925;DHT22;11628;51.072;3.712;2023-02-28T07:46:11;6.20;99.90
22925;DHT22;11628;51.072;3.712;2023-02-28T07:48:38;6.30;99.90
22925;DHT22;11628;51.072;3.712;2023-02-28T07:51:04;6.50;99.90
22925;DHT22;11628;51.072;3.712;2023-02-28T07:53:31;6.50;99.90
22925;DHT22;11628;51.072;3.712;2023-02-28T07:55:58;6.40;99.90
22925;DHT22;11628;51.072;3.712;2023-02-28T07:58:25;6.60;99.90
22925;DHT22;11628;51.072;3.712;2023-02-28T08:00:52;6.70;99.90
22925;DHT22;11628;51.072;3.712;2023-02-28T08:03:19;6.70;99.90
22925;DHT22;11628;51.072;3.712;2023-02-28T08:05:46;6.80;99.90
22925;DHT22;11628;51.072;3.712;2023-02-28T08:08:11;7.00;99.90
22925;DHT22;11628;51.072;3.712;2023-02-28T08:10:38;7.20;99.90
22925;DHT22;11628;51.072;3.712;2023-02-28T08:13:03;7.20;99.90
22925;DHT22;11628;51.072;3.712;2023-02-28T08:15:29;7.30;99.90
22925;DHT22;11628;51.072;3.712;2023-02-28T08:17:55;7.30;99.90
22925;DHT22;11628;51.072;3.712;2023-02-28T08:20:24;7.30;99.90
22925;DHT22;11628;51.072;3.712;2023-02-28T08:22:50;7.20;99.90
22925;DHT22;11628;51.072;3.712;2023-02-28T08:25:16;7.30;99.90
22925;DHT22;11628;51.072;3.712;2023-02-28T08:27:42;7.60;99.90
22925;DHT22;11628;51.072;3.712;2023-02-28T08:30:10;7.80;99.90
22925;DHT22;11628;51.072;3.712;2023-02-28T08:32:37;8.10;99.40
22925;DHT22;11628;51.072;3.712;2023-02-28T08:35:05;8.20;98.60
22925;DHT22;11628;51.072;3.712;2023-02-28T08:37:31;8.20;98.50
22925;DHT22;11628;51.072;3.712;2023-02-28T08:39:57;8.10;98.70
22925;DHT22;11628;51.072;3.712;2023-02-28T08:42:23;7.90;98.90
22925;DHT22;11628;51.072;3.712;2023-02-28T08:44:50;7.70;99.10
22925;DHT22;11628;51.072;3.712;2023-02-28T08:47:16;7.80;99.00
22925;DHT22;11628;51.072;3.712;2023-02-28T08:49:42;7.70;99.30
22925;DHT22;11628;51.072;3.712;2023-02-28T08:52:08;7.60;99.70
22925;DHT22;11628;51.072;3.712;2023-02-28T08:54:35;7.50;99.90
22925;DHT22;11628;51.072;3.712;2023-02-28T08:57:02;7.40;99.90
22925;DHT22;11628;51.072;3.712;2023-02-28T08:59:29;7.40;99.90
22925;DHT22;11628;51.072;3.712;2023-02-28T09:01:55;7.60;99.90
22925;DHT22;11628;51.072;3.712;2023-02-28T09:04:22;7.60;99.90
22925;DHT22;11628;51.072;3.712;2023-02-28T09:06:48;7.60;99.90
22925;DHT22;11628;51.072;3.712;2023-02-28T09:09:14;7.70;99.90
22925;DHT22;11628;51.072;3.712;2023-02-28T09:11:40;7.70;99.90
22925;DHT22;11628;51.072;3.712;2023-02-28T09:14:06;7.60;99.90
22925;DHT22;11628;51.072;3.712;2023-02-28T09:16:33;7.60;99.90
22925;DHT22;11628;51.072;3.712;2023-02-28T09:19:00;7.50;99.90
22925;DHT22;11628;51.072;3.712;2023-02-28T09:21:26;7.50;99.90
22925;DHT22;11628;51.072;3.712;2023-02-28T09:23:52;7.40;99.90
22925;DHT22;11628;51.072;3.712;2023-02-28T09:26:22;7.40;99.90
22925;DHT22;11628;51.072;3.712;2023-02-28T09:28:48;7.40;99.90
22925;DHT22;11628;51.072;3.712;2023-02-28T09:31:19;7.50;99.50
22925;DHT22;11628;51.072;3.712;2023-02-28T09:33:51;7.20;99.10
22925;DHT22;11628;51.072;3.712;2023-02-28T09:36:18;7.40;98.30
22925;DHT22;11628;51.072;3.712;2023-02-28T09:38:44;7.30;97.60
22925;DHT22;11628;51.072;3.712;2023-02-28T09:41:22;7.40;96.60
22925;DHT22;11628;51.072;3.712;2023-02-28T09:44:00;7.20;97.10
22925;DHT22;11628;51.072;3.712;2023-02-28T09:46:35;7.20;96.30
22925;DHT22;11628;51.072;3.712;2023-02-28T09:49:11;7.30;96.00
22925;DHT22;11628;51.072;3.712;2023-02-28T09:54:23;7.40;95.60
22925;DHT22;11628;51.072;3.712;2023-02-28T10:05:24;7.70;94.10
22925;DHT22;11628;51.072;3.712;2023-02-28T10:07:55;7.80;93.60
22925;DHT22;11628;51.072;3.712;2023-02-28T10:16:10;7.80;93.60
22925;DHT22;11628;51.072;3.712;2023-02-28T10:18:58;7.90;93.40
22925;DHT22;11628;51.072;3.712;2023-02-28T10:21:38;8.10;92.50
22925;DHT22;11628;51.072;3.712;2023-02-28T10:26:43;8.20;91.30
22925;DHT22;11628;51.072;3.712;2023-02-28T10:29:10;8.30;90.80
22925;DHT22;11628;51.072;3.712;2023-02-28T10:31:38;8.20;91.10
22925;DHT22;11628;51.072;3.712;2023-02-28T10:34:04;8.40;91.00
22925;DHT22;11628;51.072;3.712;2023-02-28T10:36:32;8.70;90.40
22925;DHT22;11628;51.072;3.712;2023-02-28T10:38:58;9.10;88.10
22925;DHT22;11628;51.072;3.712;2023-02-28T10:41:29;9.50;85.50
22925;DHT22;11628;51.072;3.712;2023-02-28T10:44:21;9.80;83.10
22925;DHT22;11628;51.072;3.712;2023-02-28T10:46:48;9.90;83.20
22925;DHT22;11628;51.072;3.712;2023-02-28T10:49:21;10.10;81.30
22925;DHT22;11628;51.072;3.712;2023-02-28T10:51:51;10.20;81.40
22925;DHT22;11628;51.072;3.712;2023-02-28T10:54:30;10.30;81.40
22925;DHT22;11628;51.072;3.712;2023-02-28T10:57:19;10.60;80.40
22925;DHT22;11628;51.072;3.712;2023-02-28T10:59:46;11.10;79.50
22925;DHT22;11628;51.072;3.712;2023-02-28T11:02:49;11.90;78.50
22925;DHT22;11628;51.072;3.712;2023-02-28T11:05:33;13.80;75.10
22925;DHT22;11628;51.072;3.712;2023-02-28T11:08:18;16.20;66.60
22925;DHT22;11628;51.072;3.712;2023-02-28T11:10:56;18.20;63.50
22925;DHT22;11628;51.072;3.712;2023-02-28T11:13:31;20.90;58.40
22925;DHT22;11628;51.072;3.712;2023-02-28T11:16:00;22.80;54.40
22925;DHT22;11628;51.072;3.712;2023-02-28T11:18:42;25.40;48.20
22925;DHT22;11628;51.072;3.712;2023-02-28T11:21:15;25.70;47.30
22925;DHT22;11628;51.072;3.712;2023-02-28T11:23:42;26.40;44.30
22925;DHT22;11628;51.072;3.712;2023-02-28T11:26:09;25.30;44.50
22925;DHT22;11628;51.072;3.712;2023-02-28T11:29:11;24.40;44.80
22925;DHT22;11628;51.072;3.712;2023-02-28T11:31:38;24.40;44.90
22925;DHT22;11628;51.072;3.712;2023-02-28T11:34:23;24.50;44.70
22925;DHT22;11628;51.072;3.712;2023-02-28T11:36:50;25.90;43.40
22925;DHT22;11628;51.072;3.712;2023-02-28T11:39:17;27.50;42.60
22925;DHT22;11628;51.072;3.712;2023-02-28T11:47:26;30.60;39.00
22925;DHT22;11628;51.072;3.712;2023-02-28T11:50:18;30.60;38.20
22925;DHT22;11628;51.072;3.712;2023-02-28T11:52:53;30.40;38.40
22925;DHT22;11628;51.072;3.712;2023-02-28T11:56:03;30.80;37.10
22925;DHT22;11628;51.072;3.712;2023-02-28T12:01:37;31.30;36.50
22925;DHT22;11628;51.072;3.712;2023-02-28T12:07:08;31.50;36.60
22925;DHT22;11628;51.072;3.712;2023-02-28T12:18:04;32.70;35.60
22925;DHT22;11628;51.072;3.712;2023-02-28T12:26:48;31.60;35.00
22925;DHT22;11628;51.072;3.712;2023-02-28T12:28:47;30.00;34.80
22925;DHT22;11628;51.072;3.712;2023-02-28T12:31:19;30.40;34.70
22925;DHT22;11628;51.072;3.712;2023-02-28T12:33:50;30.30;34.50
22925;DHT22;11628;51.072;3.712;2023-02-28T12:36:19;30.40;34.50
22925;DHT22;11628;51.072;3.712;2023-02-28T12:38:54;31.00;34.80
22925;DHT22;11628;51.072;3.712;2023-02-28T12:41:36;31.60;34.50
22925;DHT22;11628;51.072;3.712;2023-02-28T12:44:12;32.10;34.10
22925;DHT22;11628;51.072;3.712;2023-02-28T12:46:45;31.80;33.40
22925;DHT22;11628;51.072;3.712;2023-02-28T12:52:11;30.70;33.70
22925;DHT22;11628;51.072;3.712;2023-02-28T12:55:03;30.80;33.30
22925;DHT22;11628;51.072;3.712;2023-02-28T13:00:19;26.60;36.20
22925;DHT22;11628;51.072;3.712;2023-02-28T13:03:13;27.70;35.20
22925;DHT22;11628;51.072;3.712;2023-02-28T13:08:53;28.70;34.00
22925;DHT22;11628;51.072;3.712;2023-02-28T13:11:29;29.30;34.30
22925;DHT22;11628;51.072;3.712;2023-02-28T13:14:16;29.40;34.20
22925;DHT22;11628;51.072;3.712;2023-02-28T13:19:37;28.20;34.60
22925;DHT22;11628;51.072;3.712;2023-02-28T13:22:05;28.70;34.20
22925;DHT22;11628;51.072;3.712;2023-02-28T13:24:41;29.10;33.20
22925;DHT22;11628;51.072;3.712;2023-02-28T13:29:37;29.00;33.50
22925;DHT22;11628;51.072;3.712;2023-02-28T13:34:37;29.70;33.20
22925;DHT22;11628;51.072;3.712;2023-02-28T13:37:36;29.90;32.40
22925;DHT22;11628;51.072;3.712;2023-02-28T13:45:27;29.00;32.80
22925;DHT22;11628;51.072;3.712;2023-02-28T13:47:58;29.20;32.30
22925;DHT22;11628;51.072;3.712;2023-02-28T13:50:35;29.40;33.00
22925;DHT22;11628;51.072;3.712;2023-02-28T13:53:19;29.30;32.60
22925;DHT22;11628;51.072;3.712;2023-02-28T14:04:30;27.60;33.70
22925;DHT22;11628;51.072;3.712;2023-02-28T14:07:01;28.10;33.10
22925;DHT22;11628;51.072;3.712;2023-02-28T14:11:56;27.80;33.30
22925;DHT22;11628;51.072;3.712;2023-02-28T14:17:08;26.80;33.70
22925;DHT22;11628;51.072;3.712;2023-02-28T14:19:38;26.20;34.00
22925;DHT22;11628;51.072;3.712;2023-02-28T14:24:49;26.00;34.40
22925;DHT22;11628;51.072;3.712;2023-02-28T14:37:53;24.30;35.50
22925;DHT22;11628;51.072;3.712;2023-02-28T14:40:35;24.50;35.70
22925;DHT22;11628;51.072;3.712;2023-02-28T14:43:06;23.90;36.30
22925;DHT22;11628;51.072;3.712;2023-02-28T14:45:53;23.50;36.10
22925;DHT22;11628;51.072;3.712;2023-02-28T14:48:20;23.10;37.30
22925;DHT22;11628;51.072;3.712;2023-02-28T14:50:56;23.40;36.60
22925;DHT22;11628;51.072;3.712;2023-02-28T14:53:24;23.80;36.20
22925;DHT22;11628;51.072;3.712;2023-02-28T14:55:52;23.50;36.70
22925;DHT22;11628;51.072;3.712;2023-02-28T14:58:39;23.20;36.70
22925;DHT22;11628;51.072;3.712;2023-02-28T15:01:04;23.10;37.00
22925;DHT22;11628;51.072;3.712;2023-02-28T15:03:36;23.10;36.60
22925;DHT22;11628;51.072;3.712;2023-02-28T15:06:14;22.90;36.50
22925;DHT22;11628;51.072;3.712;2023-02-28T15:08:42;22.80;36.70
22925;DHT22;11628;51.072;3.712;2023-02-28T15:11:13;23.00;36.80
22925;DHT22;11628;51.072;3.712;2023-02-28T15:13:44;23.00;37.10
22925;DHT22;11628;51.072;3.712;2023-02-28T15:16:18;23.00;37.10
22925;DHT22;11628;51.072;3.712;2023-02-28T15:18:49;23.40;37.20
22925;DHT22;11628;51.072;3.712;2023-02-28T15:21:36;23.50;37.00
22925;DHT22;11628;51.072;3.712;2023-02-28T15:24:30;23.10;37.10
22925;DHT22;11628;51.072;3.712;2023-02-28T15:26:58;22.50;37.60
22925;DHT22;11628;51.072;3.712;2023-02-28T15:29:28;21.80;38.80
22925;DHT22;11628;51.072;3.712;2023-02-28T15:32:02;21.00;39.60
22925;DHT22;11628;51.072;3.712;2023-02-28T15:34:38;20.00;40.00
22925;DHT22;11628;51.072;3.712;2023-02-28T15:39:55;16.40;44.10
22925;DHT22;11628;51.072;3.712;2023-02-28T15:42:23;15.60;45.10
22925;DHT22;11628;51.072;3.712;2023-02-28T15:44:52;14.90;45.90
22925;DHT22;11628;51.072;3.712;2023-02-28T15:47:24;14.40;46.80
22925;DHT22;11628;51.072;3.712;2023-02-28T15:49:53;13.80;47.50
22925;DHT22;11628;51.072;3.712;2023-02-28T15:52:34;13.40;48.50
22925;DHT22;11628;51.072;3.712;2023-02-28T15:57:45;13.00;50.00
22925;DHT22;11628;51.072;3.712;2023-02-28T16:00:15;12.70;49.50
22925;DHT22;11628;51.072;3.712;2023-02-28T16:02:41;12.40;49.90
22925;DHT22;11628;51.072;3.712;2023-02-28T16:07:35;11.90;50.80
22925;DHT22;11628;51.072;3.712;2023-02-28T16:10:03;11.60;51.60
22925;DHT22;11628;51.072;3.712;2023-02-28T16:12:32;11.30;52.20
22925;DHT22;11628;51.072;3.712;2023-02-28T16:15:02;11.30;52.90
22925;DHT22;11628;51.072;3.712;2023-02-28T16:17:31;11.00;53.00
22925;DHT22;11628;51.072;3.712;2023-02-28T16:19:58;10.70;53.30
22925;DHT22;11628;51.072;3.712;2023-02-28T16:22:25;10.70;54.10
22925;DHT22;11628;51.072;3.712;2023-02-28T16:24:52;10.60;54.60
22925;DHT22;11628;51.072;3.712;2023-02-28T16:27:25;10.50;54.60
22925;DHT22;11628;51.072;3.712;2023-02-28T16:29:53;10.30;54.50
22925;DHT22;11628;51.072;3.712;2023-02-28T16:32:19;10.30;55.00
22925;DHT22;11628;51.072;3.712;2023-02-28T16:34:45;10.30;56.00
22925;DHT22;11628;51.072;3.712;2023-02-28T16:37:13;10.20;55.70
22925;DHT22;11628;51.072;3.712;2023-02-28T16:39:41;10.20;56.20
22925;DHT22;11628;51.072;3.712;2023-02-28T16:42:10;10.20;56.20
22925;DHT22;11628;51.072;3.712;2023-02-28T16:44:36;10.00;56.10
22925;DHT22;11628;51.072;3.712;2023-02-28T16:47:03;10.00;56.40
22925;DHT22;11628;51.072;3.712;2023-02-28T16:49:29;10.00;57.60
22925;DHT22;11628;51.072;3.712;2023-02-28T16:51:55;9.80;56.50
22925;DHT22;11628;51.072;3.712;2023-02-28T16:54:21;9.60;57.00
22925;DHT22;11628;51.072;3.712;2023-02-28T16:56:48;9.50;57.10
22925;DHT22;11628;51.072;3.712;2023-02-28T16:59:18;9.40;57.30
22925;DHT22;11628;51.072;3.712;2023-02-28T17:01:45;9.30;57.90
22925;DHT22;11628;51.072;3.712;2023-02-28T17:04:11;9.20;58.20
22925;DHT22;11628;51.072;3.712;2023-02-28T17:06:39;9.10;58.30
22925;DHT22;11628;51.072;3.712;2023-02-28T17:09:05;9.10;58.60
22925;DHT22;11628;51.072;3.712;2023-02-28T17:11:34;9.00;58.80
22925;DHT22;11628;51.072;3.712;2023-02-28T17:13:59;9.00;59.20
22925;DHT22;11628;51.072;3.712;2023-02-28T17:18:57;8.80;59.60
22925;DHT22;11628;51.072;3.712;2023-02-28T17:21:24;8.70;60.00
22925;DHT22;11628;51.072;3.712;2023-02-28T17:23:50;8.80;60.30
22925;DHT22;11628;51.072;3.712;2023-02-28T17:26:18;8.80;60.70
22925;DHT22;11628;51.072;3.712;2023-02-28T17:28:50;8.70;60.70
22925;DHT22;11628;51.072;3.712;2023-02-28T17:31:17;8.60;61.10
22925;DHT22;11628;51.072;3.712;2023-02-28T17:33:43;8.60;61.40
22925;DHT22;11628;51.072;3.712;2023-02-28T17:36:14;8.60;61.50
22925;DHT22;11628;51.072;3.712;2023-02-28T17:38:41;8.50;61.80
22925;DHT22;11628;51.072;3.712;2023-02-28T17:41:10;8.50;62.10
22925;DHT22;11628;51.072;3.712;2023-02-28T17:43:36;8.40;62.40
22925;DHT22;11628;51.072;3.712;2023-02-28T17:46:02;8.30;62.60
22925;DHT22;11628;51.072;3.712;2023-02-28T17:48:30;8.20;62.70
22925;DHT22;11628;51.072;3.712;2023-02-28T17:50:56;8.20;63.00
22925;DHT22;11628;51.072;3.712;2023-02-28T17:53:23;8.10;63.30
22925;DHT22;11628;51.072;3.712;2023-02-28T17:55:51;8.10;63.70
22925;DHT22;11628;51.072;3.712;2023-02-28T17:58:17;8.10;63.90
22925;DHT22;11628;51.072;3.712;2023-02-28T18:00:44;8.00;64.20
22925;DHT22;11628;51.072;3.712;2023-02-28T18:03:10;7.90;64.70
22925;DHT22;11628;51.072;3.712;2023-02-28T18:05:38;8.00;64.90
22925;DHT22;11628;51.072;3.712;2023-02-28T18:08:04;7.80;65.00
22925;DHT22;11628;51.072;3.712;2023-02-28T18:10:30;7.80;65.00
22925;DHT22;11628;51.072;3.712;2023-02-28T18:12:58;7.70;65.70
22925;DHT22;11628;51.072;3.712;2023-02-28T18:15:25;7.70;66.20
22925;DHT22;11628;51.072;3.712;2023-02-28T18:17:52;7.60;65.90
22925;DHT22;11628;51.072;3.712;2023-02-28T18:20:18;7.60;66.10
22925;DHT22;11628;51.072;3.712;2023-02-28T18:22:44;7.60;66.10
22925;DHT22;11628;51.072;3.712;2023-02-28T18:25:11;7.50;66.20
22925;DHT22;11628;51.072;3.712;2023-02-28T18:27:41;7.50;66.50